createdAt,value
2024-01-12T00:01:09.493Z,100615.56
2024-01-12T00:03:37.937Z,100616.66
2024-01-12T00:06:06.262Z,100619.28
2024-01-12T00:08:34.357Z,100636.91
2024-01-12T00:11:01.145Z,100625.31
2024-01-12T00:13:27.752Z,100632.47
2024-01-12T00:15:54.622Z,100633.81
2024-01-12T00:18:21.428Z,100628.94
2024-01-12T00:20:48.151Z,100631.28
2024-01-12T00:23:15.248Z,100633.16
2024-01-12T00:25:42.178Z,100636.50
2024-01-12T00:28:12.119Z,100639.16
2024-01-12T00:30:40.485Z,100636.84
2024-01-12T00:33:07.855Z,100636.59
2024-01-12T00:35:34.788Z,100638.84
2024-01-12T00:38:01.437Z,100637.63
2024-01-12T00:40:28.001Z,100631.06
2024-01-12T00:42:54.730Z,100627.34
2024-01-12T00:45:21.534Z,100632.47
2024-01-12T00:47:48.320Z,100630.56
2024-01-12T00:50:15.082Z,100625.38
2024-01-12T00:52:41.802Z,100616.34
2024-01-12T00:55:08.784Z,100609.41
2024-01-12T00:57:35.548Z,100613.28
2024-01-12T01:00:02.261Z,100618.25
2024-01-12T01:02:29.008Z,100615.13
2024-01-12T01:04:56.500Z,100625.88
2024-01-12T01:07:23.812Z,100629.00
2024-01-12T01:09:50.931Z,100636.31
2024-01-12T01:12:17.507Z,100637.81
2024-01-12T01:14:44.150Z,100637.69
2024-01-12T01:17:10.791Z,100638.91
2024-01-12T01:19:37.489Z,100631.78
2024-01-12T01:22:04.609Z,100630.81
2024-01-12T01:24:32.831Z,100629.34
2024-01-12T01:26:59.530Z,100638.03
2024-01-12T01:29:26.198Z,100629.13
2024-01-12T01:31:52.799Z,100627.44
2024-01-12T01:34:19.685Z,100624.44
2024-01-12T01:36:46.473Z,100625.28
2024-01-12T01:39:13.612Z,100630.81
2024-01-12T01:41:40.209Z,100628.28
2024-01-12T01:44:06.931Z,100627.16
2024-01-12T01:46:33.967Z,100630.75
2024-01-12T01:49:00.969Z,100638.81
2024-01-12T01:51:28.600Z,100633.22
2024-01-12T01:53:55.969Z,100629.31
2024-01-12T01:56:23.989Z,100633.94
2024-01-12T01:58:51.432Z,100638.28
2024-01-12T02:01:20.460Z,100636.47
2024-01-12T02:03:49.461Z,100630.91
2024-01-12T02:06:17.853Z,100630.16
2024-01-12T02:08:47.736Z,100633.78
2024-01-12T02:11:14.459Z,100634.97
2024-01-12T02:13:41.235Z,100635.84
2024-01-12T02:16:09.638Z,100626.66
2024-01-12T02:18:36.701Z,100633.81
2024-01-12T02:21:03.681Z,100624.06
2024-01-12T02:23:30.386Z,100627.00
2024-01-12T02:25:57.423Z,100625.41
2024-01-12T02:28:24.132Z,100623.06
2024-01-12T02:30:51.744Z,100617.84
2024-01-12T02:33:18.605Z,100617.31
2024-01-12T02:35:45.324Z,100617.44
2024-01-12T02:38:12.098Z,100609.44
2024-01-12T02:40:38.711Z,100607.47
2024-01-12T02:43:05.433Z,100610.91
2024-01-12T02:45:32.054Z,100607.41
2024-01-12T02:47:58.897Z,100609.09
2024-01-12T02:50:25.809Z,100616.13
2024-01-12T02:52:52.423Z,100623.00
2024-01-12T02:55:19.296Z,100625.81
2024-01-12T02:57:46.377Z,100630.47
2024-01-12T03:00:14.040Z,100625.28
2024-01-12T03:02:40.771Z,100633.84
2024-01-12T03:05:08.165Z,100625.56
2024-01-12T03:07:34.898Z,100624.84
2024-01-12T03:10:02.047Z,100619.63
2024-01-12T03:12:28.635Z,100615.50
2024-01-12T03:14:55.434Z,100624.31
2024-01-12T03:17:22.326Z,100611.09
2024-01-12T03:19:49.003Z,100617.13
2024-01-12T03:22:15.635Z,100615.22
2024-01-12T03:24:42.246Z,100608.59
2024-01-12T03:27:08.862Z,100614.78
2024-01-12T03:29:35.612Z,100606.22
2024-01-12T03:32:02.294Z,100605.22
2024-01-12T03:34:29.251Z,100601.06
2024-01-12T03:36:56.805Z,100606.47
2024-01-12T03:39:23.392Z,100603.69
2024-01-12T03:41:50.073Z,100602.75
2024-01-12T03:44:16.754Z,100602.81
2024-01-12T03:46:43.487Z,100604.75
2024-01-12T03:49:10.253Z,100602.06
2024-01-12T03:51:36.801Z,100603.94
2024-01-12T03:54:03.791Z,100603.63
2024-01-12T03:56:30.391Z,100610.06
2024-01-12T03:58:56.992Z,100597.91
2024-01-12T04:01:24.211Z,100590.53
2024-01-12T04:03:51.065Z,100594.66
2024-01-12T04:06:19.486Z,100592.69
2024-01-12T04:08:46.189Z,100600.09
2024-01-12T04:11:23.294Z,100598.53
2024-01-12T04:13:50.241Z,100597.38
2024-01-12T04:16:16.976Z,100604.25
2024-01-12T04:18:43.848Z,100601.63
2024-01-12T04:21:10.931Z,100604.16
2024-01-12T04:23:39.414Z,100599.28
2024-01-12T04:26:08.424Z,100590.84
2024-01-12T04:28:35.561Z,100603.81
2024-01-12T04:31:03.774Z,100606.72
2024-01-12T04:33:32.536Z,100595.44
2024-01-12T04:36:01.168Z,100603.03
2024-01-12T04:38:28.866Z,100596.78
2024-01-12T04:40:55.762Z,100604.81
2024-01-12T04:43:22.491Z,100593.06
2024-01-12T04:45:49.183Z,100590.69
2024-01-12T04:48:15.945Z,100592.94
2024-01-12T04:50:42.662Z,100602.00
2024-01-12T04:53:09.262Z,100600.22
2024-01-12T04:55:35.966Z,100605.22
2024-01-12T04:58:04.393Z,100598.16
2024-01-12T05:00:31.367Z,100591.81
2024-01-12T05:02:58.153Z,100595.56
2024-01-12T05:05:25.331Z,100588.06
2024-01-12T05:07:52.313Z,100606.53
2024-01-12T05:10:18.919Z,100594.59
2024-01-12T05:12:45.783Z,100582.78
2024-01-12T05:15:12.627Z,100582.72
2024-01-12T05:17:39.346Z,100592.41
2024-01-12T05:20:08.251Z,100587.16
2024-01-12T05:22:36.853Z,100577.81
2024-01-12T05:25:06.373Z,100574.38
2024-01-12T05:27:33.248Z,100573.31
2024-01-12T05:30:03.414Z,100579.00
2024-01-12T05:32:31.269Z,100576.69
2024-01-12T05:34:58.691Z,100579.44
2024-01-12T05:37:25.383Z,100579.53
2024-01-12T05:39:52.268Z,100582.50
2024-01-12T05:42:18.953Z,100563.19
2024-01-12T05:44:45.658Z,100566.66
2024-01-12T05:47:12.433Z,100561.84
2024-01-12T05:49:39.602Z,100559.28
2024-01-12T05:52:06.873Z,100570.00
2024-01-12T05:54:33.558Z,100561.38
2024-01-12T05:57:00.465Z,100568.84
2024-01-12T05:59:27.332Z,100565.19
2024-01-12T06:01:55.198Z,100573.56
2024-01-12T06:04:21.877Z,100575.00
2024-01-12T06:06:49.586Z,100579.94
2024-01-12T06:09:16.475Z,100576.97
2024-01-12T06:11:45.134Z,100581.94
2024-01-12T06:14:12.187Z,100589.88
2024-01-12T06:16:39.003Z,100592.16
2024-01-12T06:19:05.947Z,100600.69
2024-01-12T06:21:32.804Z,100590.13
2024-01-12T06:23:59.498Z,100596.72
2024-01-12T06:26:26.250Z,100587.25
2024-01-12T06:28:52.879Z,100588.72
2024-01-12T06:31:19.511Z,100582.16
2024-01-12T06:33:46.366Z,100588.75
2024-01-12T06:36:13.211Z,100580.75
2024-01-12T06:38:39.894Z,100582.56
2024-01-12T06:41:06.518Z,100581.69
2024-01-12T06:43:33.116Z,100582.69
2024-01-12T06:45:59.724Z,100591.09
2024-01-12T06:48:26.377Z,100599.44
2024-01-12T06:50:53.052Z,100602.28
2024-01-12T06:53:19.746Z,100608.44
2024-01-12T06:55:46.649Z,100604.13
2024-01-12T06:58:13.554Z,100610.06
2024-01-12T07:00:40.179Z,100607.38
2024-01-12T07:03:07.489Z,100610.69
2024-01-12T07:05:34.472Z,100615.75
2024-01-12T07:08:01.212Z,100610.53
2024-01-12T07:10:27.829Z,100616.66
2024-01-12T07:12:54.473Z,100615.06
2024-01-12T07:15:21.591Z,100610.97
2024-01-12T07:17:52.433Z,100619.84
2024-01-12T07:20:19.884Z,100620.50
2024-01-12T07:22:46.829Z,100612.25
2024-01-12T07:25:13.613Z,100595.00
2024-01-12T07:27:42.303Z,100597.06
2024-01-12T07:30:10.302Z,100602.78
2024-01-12T07:32:37.302Z,100605.25
2024-01-12T07:35:04.695Z,100605.47
2024-01-12T07:37:31.307Z,100611.25
2024-01-12T07:39:57.967Z,100611.53
2024-01-12T07:42:24.608Z,100606.03
2024-01-12T07:44:51.265Z,100597.28
2024-01-12T07:47:17.977Z,100601.84
2024-01-12T07:49:44.770Z,100601.78
2024-01-12T07:52:14.897Z,100602.84
2024-01-12T07:54:44.288Z,100604.28
2024-01-12T07:57:11.050Z,100602.78
2024-01-12T07:59:37.772Z,100606.19
2024-01-12T08:02:04.662Z,100610.47
2024-01-12T08:04:31.215Z,100607.13
2024-01-12T08:06:57.927Z,100608.78
2024-01-12T08:09:24.508Z,100614.88
2024-01-12T08:11:51.149Z,100613.81
2024-01-12T08:14:17.863Z,100611.81
2024-01-12T08:16:44.513Z,100605.03
2024-01-12T08:19:11.212Z,100608.69
2024-01-12T08:21:45.607Z,100604.47
2024-01-12T08:24:19.080Z,100605.13
2024-01-12T08:26:46.903Z,100619.53
2024-01-12T08:29:13.701Z,100624.72
2024-01-12T08:31:40.509Z,100609.94
2024-01-12T08:34:07.276Z,100613.88
2024-01-12T08:36:33.981Z,100611.00
2024-01-12T08:39:00.726Z,100611.84
2024-01-12T08:41:27.498Z,100609.72
2024-01-12T08:43:54.885Z,100612.41
2024-01-12T08:46:21.992Z,100613.63
2024-01-12T08:48:50.419Z,100618.75
2024-01-12T08:51:17.500Z,100625.00
2024-01-12T08:53:44.500Z,100621.16
2024-01-12T08:56:11.172Z,100612.78
2024-01-12T08:58:39.201Z,100613.53
2024-01-12T09:01:06.441Z,100620.84
2024-01-12T09:03:33.387Z,100618.38
2024-01-12T09:06:00.388Z,100622.22
2024-01-12T09:08:27.408Z,100624.25
2024-01-12T09:10:54.048Z,100616.38
2024-01-12T09:13:20.774Z,100621.31
2024-01-12T09:15:47.409Z,100626.69
2024-01-12T09:18:14.351Z,100625.22
2024-01-12T09:20:41.137Z,100623.78
2024-01-12T09:23:07.834Z,100615.69
2024-01-12T09:25:34.438Z,100624.06
2024-01-12T09:28:01.720Z,100619.94
2024-01-12T09:30:28.638Z,100630.59
2024-01-12T09:32:55.495Z,100638.69
2024-01-12T09:35:22.341Z,100632.59
2024-01-12T09:37:49.009Z,100633.75
2024-01-12T09:40:15.691Z,100630.00
2024-01-12T09:42:45.251Z,100632.16
2024-01-12T09:45:21.348Z,100635.56
2024-01-12T09:47:51.198Z,100642.06
2024-01-12T09:50:23.379Z,100635.69
2024-01-12T09:52:52.549Z,100645.16
2024-01-12T09:55:19.182Z,100645.38
2024-01-12T09:57:47.305Z,100642.13
2024-01-12T10:00:16.036Z,100638.78
2024-01-12T10:02:43.431Z,100635.53
2024-01-12T10:05:10.384Z,100637.81
2024-01-12T10:07:37.566Z,100634.16
2024-01-12T10:10:04.798Z,100633.53
2024-01-12T10:12:31.495Z,100640.84
2024-01-12T10:15:03.577Z,100639.56
2024-01-12T10:17:33.023Z,100641.03
2024-01-12T10:19:59.914Z,100634.56
2024-01-12T10:22:26.599Z,100646.19
2024-01-12T10:25:04.397Z,100647.94
2024-01-12T10:27:32.338Z,100647.44
2024-01-12T10:29:59.804Z,100636.28
2024-01-12T10:32:27.681Z,100641.97
2024-01-12T10:34:55.047Z,100635.50
2024-01-12T10:37:23.503Z,100637.81
2024-01-12T10:39:51.681Z,100633.09
2024-01-12T10:42:22.077Z,100629.19
2024-01-12T10:44:59.487Z,100637.28
2024-01-12T10:47:35.058Z,100629.56
2024-01-12T10:50:07.712Z,100625.59
2024-01-12T10:53:22.015Z,100618.75
2024-01-12T10:55:57.090Z,100623.53
2024-01-12T10:58:24.672Z,100627.31
2024-01-12T11:00:51.880Z,100629.72
2024-01-12T11:03:21.595Z,100631.28
2024-01-12T11:05:50.301Z,100627.44
2024-01-12T11:08:21.739Z,100621.66
2024-01-12T11:10:56.488Z,100623.09
2024-01-12T11:13:24.905Z,100620.50
2024-01-12T11:15:54.385Z,100610.97
2024-01-12T11:18:21.741Z,100600.34
2024-01-12T11:20:48.785Z,100593.94
2024-01-12T11:23:15.682Z,100584.78
2024-01-12T11:25:45.291Z,100591.00
2024-01-12T11:28:15.916Z,100585.09
2024-01-12T11:30:43.708Z,100575.53
2024-01-12T11:33:10.629Z,100584.84
2024-01-12T11:35:38.593Z,100573.13
2024-01-12T11:38:10.938Z,100555.66
2024-01-12T11:40:38.982Z,100557.78
2024-01-12T11:43:06.816Z,100570.94
2024-01-12T11:45:34.827Z,100560.41
2024-01-12T11:48:05.085Z,100565.22
2024-01-12T11:50:32.920Z,100555.06
2024-01-12T11:53:01.945Z,100567.88
2024-01-12T11:55:28.719Z,100553.25
2024-01-12T11:57:56.907Z,100535.56
2024-01-12T12:00:24.894Z,100546.72
2024-01-12T12:02:55.437Z,100545.97
2024-01-12T12:05:25.028Z,100552.41
2024-01-12T12:07:52.193Z,100550.00
2024-01-12T12:10:23.746Z,100543.94
2024-01-12T12:12:56.928Z,100543.75
2024-01-12T12:15:26.754Z,100543.53
2024-01-12T12:17:55.636Z,100552.28
2024-01-12T12:20:24.815Z,100549.31
2024-01-12T12:22:51.978Z,100534.25
2024-01-12T12:25:18.701Z,100531.06
2024-01-12T12:27:48.636Z,100527.00
2024-01-12T12:30:18.427Z,100527.56
2024-01-12T12:32:47.692Z,100533.38
2024-01-12T12:35:19.076Z,100526.69
2024-01-12T12:37:48.212Z,100521.31
2024-01-12T12:40:17.764Z,100518.00
2024-01-12T12:42:49.073Z,100522.38
2024-01-12T12:45:18.658Z,100523.88
2024-01-12T12:47:46.712Z,100517.19
2024-01-12T12:50:14.474Z,100510.59
2024-01-12T12:52:43.829Z,100508.75
2024-01-12T12:55:10.764Z,100512.31
2024-01-12T12:57:39.590Z,100510.47
2024-01-12T13:00:11.745Z,100512.84
2024-01-12T13:02:40.339Z,100498.81
2024-01-12T13:05:09.248Z,100504.50
2024-01-12T13:07:37.992Z,100509.78
2024-01-12T13:10:06.787Z,100502.91
2024-01-12T13:12:33.652Z,100501.44
2024-01-12T13:15:00.532Z,100492.97
2024-01-12T13:17:27.959Z,100486.59
2024-01-12T13:19:54.747Z,100488.69
2024-01-12T13:22:21.706Z,100483.91
2024-01-12T13:24:48.329Z,100478.81
2024-01-12T13:27:14.993Z,100475.13
2024-01-12T13:29:41.635Z,100476.03
2024-01-12T13:32:08.438Z,100475.41
2024-01-12T13:34:35.211Z,100469.94
2024-01-12T13:37:03.827Z,100464.88
2024-01-12T13:39:31.485Z,100458.63
2024-01-12T13:42:01.998Z,100457.03
2024-01-12T13:44:29.404Z,100448.84
2024-01-12T13:46:56.194Z,100446.59
2024-01-12T13:49:23.542Z,100442.53
2024-01-12T13:51:50.675Z,100440.75
2024-01-12T13:54:17.731Z,100435.84
2024-01-12T13:56:44.415Z,100441.59
2024-01-12T13:59:11.234Z,100439.06
2024-01-12T14:01:39.744Z,100431.38
2024-01-12T14:04:07.835Z,100423.84
2024-01-12T14:06:38.115Z,100430.22
2024-01-12T14:09:07.914Z,100425.97
2024-01-12T14:11:37.301Z,100451.22
2024-01-12T14:14:04.800Z,100449.47
2024-01-12T14:16:32.035Z,100446.44
2024-01-12T14:18:58.815Z,100451.41
2024-01-12T14:21:25.604Z,100461.00
2024-01-12T14:23:52.358Z,100454.69
2024-01-12T14:26:19.334Z,100466.72
2024-01-12T14:28:47.674Z,100461.41
2024-01-12T14:31:16.879Z,100459.25
2024-01-12T14:33:46.370Z,100465.00
2024-01-12T14:36:13.480Z,100467.22
2024-01-12T14:38:40.156Z,100473.22
2024-01-12T14:41:07.016Z,100468.72
2024-01-12T14:43:33.613Z,100467.78
2024-01-12T14:46:00.410Z,100475.78
2024-01-12T14:48:27.403Z,100472.94
2024-01-12T14:50:55.583Z,100467.84
2024-01-12T14:53:23.576Z,100466.84
2024-01-12T14:55:50.986Z,100473.25
2024-01-12T14:58:17.867Z,100472.63
2024-01-12T15:00:47.159Z,100475.03
2024-01-12T15:03:13.899Z,100462.34
2024-01-12T15:05:42.133Z,100469.25
2024-01-12T15:08:10.467Z,100474.88
2024-01-12T15:10:37.325Z,100483.50
2024-01-12T15:13:06.759Z,100480.22
2024-01-12T15:15:34.509Z,100483.50
2024-01-12T15:18:01.730Z,100468.56
2024-01-12T15:20:28.643Z,100469.47
2024-01-12T15:23:01.484Z,100475.41
2024-01-12T15:25:31.681Z,100482.31
2024-01-12T15:27:58.683Z,100480.66
2024-01-12T15:30:25.726Z,100479.88
2024-01-12T15:32:52.902Z,100480.34
2024-01-12T15:35:19.663Z,100485.13
2024-01-12T15:37:46.201Z,100483.97
2024-01-12T15:40:13.129Z,100479.09
2024-01-12T15:42:45.324Z,100476.41
2024-01-12T15:45:16.125Z,100477.59
2024-01-12T15:47:43.001Z,100483.28
2024-01-12T15:50:10.256Z,100486.03
2024-01-12T15:52:36.917Z,100480.00
2024-01-12T15:55:03.879Z,100475.44
2024-01-12T15:57:30.582Z,100464.38
2024-01-12T15:59:57.213Z,100476.72
2024-01-12T16:02:23.844Z,100464.03
2024-01-12T16:04:50.483Z,100469.69
2024-01-12T16:07:18.825Z,100462.91
2024-01-12T16:09:45.491Z,100466.47
2024-01-12T16:12:12.151Z,100471.63
2024-01-12T16:14:43.803Z,100465.72
2024-01-12T16:17:11.042Z,100459.94
2024-01-12T16:19:53.492Z,100448.94
2024-01-12T16:22:20.268Z,100449.41
2024-01-12T16:24:50.212Z,100439.06
2024-01-12T16:27:17.523Z,100448.31
2024-01-12T16:29:45.180Z,100449.31
2024-01-12T16:32:12.099Z,100455.00
2024-01-12T16:34:38.771Z,100465.25
2024-01-12T16:37:05.410Z,100457.72
2024-01-12T16:39:31.996Z,100462.38
2024-01-12T16:41:58.752Z,100462.72
2024-01-12T16:44:28.574Z,100462.72
2024-01-12T16:46:55.338Z,100466.34
2024-01-12T16:49:23.268Z,100472.25
2024-01-12T16:51:50.045Z,100467.13
2024-01-12T16:54:16.943Z,100462.63
2024-01-12T16:56:43.978Z,100464.91
2024-01-12T16:59:13.310Z,100463.44
2024-01-12T17:01:40.441Z,100463.72
2024-01-12T17:04:07.629Z,100467.03
2024-01-12T17:06:40.782Z,100470.81
2024-01-12T17:09:09.225Z,100471.94
2024-01-12T17:11:36.865Z,100476.50
2024-01-12T17:14:03.503Z,100477.03
2024-01-12T17:16:41.431Z,100483.72
2024-01-12T17:19:09.551Z,100483.41
2024-01-12T17:21:36.329Z,100471.72
2024-01-12T17:24:03.523Z,100477.38
2024-01-12T17:26:30.240Z,100471.81
2024-01-12T17:28:56.846Z,100469.09
2024-01-12T17:31:23.657Z,100468.47
2024-01-12T17:33:50.805Z,100471.72
2024-01-12T17:36:17.558Z,100473.13
2024-01-12T17:38:45.102Z,100465.16
2024-01-12T17:41:11.905Z,100478.50
2024-01-12T17:43:38.505Z,100471.66
2024-01-12T17:46:05.160Z,100472.47
2024-01-12T17:48:34.338Z,100472.81
2024-01-12T17:51:01.138Z,100470.41
2024-01-12T17:53:27.781Z,100463.53
2024-01-12T17:55:54.416Z,100457.16
2024-01-12T17:58:21.004Z,100449.47
2024-01-12T18:00:47.632Z,100449.63
2024-01-12T18:03:14.524Z,100445.94
2024-01-12T18:05:41.513Z,100449.31
2024-01-12T18:08:08.128Z,100439.00
2024-01-12T18:10:34.989Z,100436.84
2024-01-12T18:13:01.611Z,100433.94
2024-01-12T18:15:28.189Z,100435.22
2024-01-12T18:17:54.917Z,100444.53
2024-01-12T18:20:21.868Z,100449.88
2024-01-12T18:22:48.614Z,100445.94
2024-01-12T18:25:16.858Z,100452.63
2024-01-12T18:27:43.526Z,100456.47
2024-01-12T18:30:10.400Z,100454.03
2024-01-12T18:32:37.269Z,100454.78
2024-01-12T18:35:04.438Z,100453.25
2024-01-12T18:37:31.012Z,100448.84
2024-01-12T18:39:57.751Z,100450.47
2024-01-12T18:42:24.525Z,100442.31
2024-01-12T18:44:51.613Z,100450.31
2024-01-12T18:47:18.459Z,100444.22
2024-01-12T18:49:45.020Z,100446.16
2024-01-12T18:52:11.766Z,100441.47
2024-01-12T18:54:38.444Z,100438.38
2024-01-12T18:57:05.438Z,100436.78
2024-01-12T18:59:32.064Z,100427.84
2024-01-12T19:01:58.721Z,100433.97
2024-01-12T19:04:25.271Z,100424.06
2024-01-12T19:06:51.895Z,100421.31
2024-01-12T19:09:18.632Z,100427.38
2024-01-12T19:11:45.760Z,100423.59
2024-01-12T19:14:13.544Z,100428.09
2024-01-12T19:16:42.213Z,100426.38
2024-01-12T19:19:08.870Z,100415.50
2024-01-12T19:21:35.575Z,100422.75
2024-01-12T19:24:02.190Z,100432.28
2024-01-12T19:26:28.900Z,100421.06
2024-01-12T19:28:55.531Z,100428.59
2024-01-12T19:31:24.938Z,100426.31
2024-01-12T19:33:51.974Z,100417.81
2024-01-12T19:36:19.828Z,100423.59
2024-01-12T19:38:46.932Z,100422.06
2024-01-12T19:41:29.845Z,100429.75
2024-01-12T19:43:57.109Z,100425.16
2024-01-12T19:46:23.716Z,100425.59
2024-01-12T19:48:54.188Z,100415.66
2024-01-12T19:51:22.921Z,100419.53
2024-01-12T19:53:49.550Z,100420.69
2024-01-12T19:56:17.298Z,100430.03
2024-01-12T19:58:44.494Z,100420.03
2024-01-12T20:01:11.188Z,100422.91
2024-01-12T20:03:39.400Z,100419.91
2024-01-12T20:06:06.337Z,100419.94
2024-01-12T20:08:33.102Z,100419.81
2024-01-12T20:10:59.964Z,100420.19
2024-01-12T20:13:26.587Z,100423.69
2024-01-12T20:15:53.190Z,100418.44
2024-01-12T20:18:20.024Z,100419.31
2024-01-12T20:20:46.771Z,100414.66
2024-01-12T20:23:13.347Z,100417.28
2024-01-12T20:25:39.952Z,100411.09
2024-01-12T20:28:08.009Z,100409.69
2024-01-12T20:30:35.750Z,100403.56
2024-01-12T20:33:02.697Z,100401.34
2024-01-12T20:35:29.487Z,100407.97
2024-01-12T20:37:56.368Z,100400.53
2024-01-12T20:40:24.522Z,100406.81
2024-01-12T20:42:51.117Z,100398.34
2024-01-12T20:45:18.104Z,100408.69
2024-01-12T20:47:45.676Z,100403.69
2024-01-12T20:50:12.404Z,100404.72
2024-01-12T20:52:39.095Z,100402.00
2024-01-12T20:55:06.641Z,100396.69
2024-01-12T20:57:33.781Z,100393.91
2024-01-12T21:00:00.528Z,100387.91
2024-01-12T21:02:27.302Z,100392.88
2024-01-12T21:04:54.040Z,100384.75
2024-01-12T21:07:21.253Z,100384.44
2024-01-12T21:09:47.868Z,100382.47
2024-01-12T21:12:14.619Z,100387.09
2024-01-12T21:14:41.350Z,100390.03
2024-01-12T21:17:08.585Z,100385.72
2024-01-12T21:19:35.378Z,100388.72
2024-01-12T21:22:02.017Z,100386.81
2024-01-12T21:24:28.610Z,100390.41
2024-01-12T21:26:55.255Z,100387.09
2024-01-12T21:29:22.061Z,100389.63
2024-01-12T21:31:48.685Z,100386.25
2024-01-12T21:34:15.489Z,100389.19
2024-01-12T21:36:42.598Z,100393.50
2024-01-12T21:39:10.118Z,100391.00
2024-01-12T21:41:37.485Z,100391.66
2024-01-12T21:44:04.331Z,100379.78
2024-01-12T21:46:31.591Z,100373.81
2024-01-12T21:48:58.450Z,100372.63
2024-01-12T21:51:25.152Z,100371.19
2024-01-12T21:53:51.849Z,100368.75
2024-01-12T21:56:18.867Z,100370.00
2024-01-12T21:58:47.748Z,100360.72
2024-01-12T22:01:15.979Z,100351.53
2024-01-12T22:03:42.616Z,100351.94
2024-01-12T22:06:09.384Z,100348.84
2024-01-12T22:08:36.096Z,100347.78
2024-01-12T22:11:02.845Z,100348.16
2024-01-12T22:13:29.462Z,100347.91
2024-01-12T22:15:56.656Z,100345.38
2024-01-12T22:18:24.400Z,100341.75
2024-01-12T22:20:52.676Z,100343.88
2024-01-12T22:23:19.374Z,100342.34
2024-01-12T22:25:45.982Z,100342.47
2024-01-12T22:28:12.707Z,100338.66
2024-01-12T22:30:39.287Z,100340.06
2024-01-12T22:33:06.493Z,100334.19
2024-01-12T22:35:33.256Z,100327.44
2024-01-12T22:38:00.047Z,100324.66
2024-01-12T22:40:26.674Z,100319.50
2024-01-12T22:42:53.231Z,100322.75
2024-01-12T22:45:19.909Z,100326.78
2024-01-12T22:47:46.576Z,100323.22
2024-01-12T22:50:15.324Z,100325.81
2024-01-12T22:52:41.896Z,100318.81
2024-01-12T22:55:09.538Z,100317.94
2024-01-12T22:57:36.095Z,100318.56
2024-01-12T23:00:05.326Z,100314.00
2024-01-12T23:02:33.318Z,100318.00
2024-01-12T23:05:01.120Z,100313.38
2024-01-12T23:07:29.811Z,100316.66
2024-01-12T23:09:56.495Z,100306.34
2024-01-12T23:12:23.074Z,100300.28
2024-01-12T23:14:49.757Z,100295.03
2024-01-12T23:17:16.388Z,100287.81
2024-01-12T23:19:42.943Z,100284.91
2024-01-12T23:22:09.533Z,100290.97
2024-01-12T23:24:36.125Z,100288.94
2024-01-12T23:27:02.818Z,100286.06
2024-01-12T23:29:32.680Z,100276.44
2024-01-12T23:32:02.705Z,100284.28
2024-01-12T23:34:29.475Z,100278.28
2024-01-12T23:36:56.079Z,100285.00
2024-01-12T23:39:22.761Z,100285.53
2024-01-12T23:41:49.453Z,100277.38
2024-01-12T23:44:16.018Z,100278.41
2024-01-12T23:46:42.634Z,100279.03
2024-01-12T23:49:09.427Z,100271.13
2024-01-12T23:51:36.203Z,100270.28
2024-01-12T23:54:02.861Z,100261.28
2024-01-12T23:56:29.757Z,100268.25
2024-01-12T23:58:56.436Z,100273.34
